Time;durP1;ratioP1;P1;durP2;ratioP2;P2;SDS_P1;SDS_P2;PMS_P1;PMS_P2;Temp;Humidity;BMP_temperature;BMP_pressure;BME280_temperature;BME280_humidity;BME280_pressure;Samples;Min_cycle;Max_cycle;Signal;HPM_P1;HPM_P2
2022/11/03 00:02:12;;;;;;;50.37;5.20;;;13.10;99.90;;;;;;5015119;28;20050;-74
2022/11/03 00:04:39;;;;;;;31.33;4.25;;;13.10;99.90;;;;;;5015951;28;20287;-73
2022/11/03 00:07:07;;;;;;;34.83;4.20;;;13.00;99.90;;;;;;5015978;28;20056;-73
2022/11/03 00:09:35;;;;;;;18.95;3.20;;;12.90;99.90;;;;;;5014627;28;20288;-73
2022/11/03 00:12:02;;;;;;;20.75;3.38;;;12.90;99.90;;;;;;5015254;28;20053;-72
2022/11/03 00:14:30;;;;;;;22.40;3.00;;;12.90;99.90;;;;;;5016084;28;20050;-74
2022/11/03 00:16:57;;;;;;;13.98;2.22;;;12.80;99.90;;;;;;5014706;28;20053;-72
2022/11/03 00:19:25;;;;;;;14.50;2.40;;;12.80;99.90;;;;;;5015770;28;20042;-74
2022/11/03 00:21:52;;;;;;;15.07;1.87;;;12.80;99.90;;;;;;5014840;28;20054;-74
2022/11/03 00:24:20;;;;;;;16.73;2.07;;;12.70;99.90;;;;;;5015564;28;20287;-73
2022/11/03 00:26:47;;;;;;;14.02;1.70;;;12.80;99.90;;;;;;5015969;28;20280;-74
2022/11/03 00:29:15;;;;;;;10.63;1.60;;;12.60;99.90;;;;;;4997380;28;20052;-72
2022/11/03 00:31:43;;;;;;;9.75;1.80;;;12.40;99.90;;;;;;5015554;28;20065;-72
2022/11/03 00:34:11;;;;;;;9.32;2.00;;;12.40;99.90;;;;;;5015559;28;20050;-74
2022/11/03 00:36:43;;;;;;;8.15;1.83;;;12.30;99.90;;;;;;5014430;28;20046;-73
2022/11/03 00:39:12;;;;;;;11.70;1.70;;;12.30;99.90;;;;;;5015486;28;20046;-73
2022/11/03 00:41:39;;;;;;;13.05;1.85;;;12.20;99.90;;;;;;5015363;28;20049;-72
2022/11/03 00:44:09;;;;;;;14.75;2.20;;;12.20;99.90;;;;;;5014603;28;20105;-72
2022/11/03 00:46:36;;;;;;;18.23;2.33;;;12.10;99.90;;;;;;5015299;28;20473;-73
2022/11/03 00:49:04;;;;;;;17.67;2.27;;;12.10;99.90;;;;;;5014014;28;20061;-73
2022/11/03 00:51:33;;;;;;;10.20;1.95;;;12.10;99.90;;;;;;5015076;28;20279;-73
2022/11/03 00:54:02;;;;;;;13.25;1.70;;;12.00;99.90;;;;;;5015414;28;20381;-72
2022/11/03 00:56:33;;;;;;;10.88;1.80;;;12.00;99.90;;;;;;5014130;28;20373;-73
2022/11/03 00:59:02;;;;;;;12.32;1.75;;;12.00;99.90;;;;;;5015407;28;20049;-72
2022/11/03 01:01:35;;;;;;;12.73;1.92;;;11.90;99.90;;;;;;5014890;28;20041;-72
2022/11/03 01:06:58;;;;;;;9.38;1.42;;;11.80;99.90;;;;;;5014815;28;20473;-72
2022/11/03 01:09:37;;;;;;;8.55;1.17;;;11.80;99.90;;;;;;5013956;28;20065;-72
2022/11/03 01:12:07;;;;;;;5.30;1.10;;;11.80;99.90;;;;;;5014776;28;20465;-74
2022/11/03 01:14:46;;;;;;;9.32;1.15;;;11.80;99.90;;;;;;5015290;28;20053;-73
2022/11/03 01:17:17;;;;;;;11.57;1.33;;;11.80;99.90;;;;;;5013747;28;20046;-74
2022/11/03 01:19:45;;;;;;;6.25;1.10;;;11.80;99.90;;;;;;5015150;28;20042;-72
2022/11/03 01:22:13;;;;;;;6.10;1.15;;;11.80;99.90;;;;;;5013955;28;20042;-72
2022/11/03 01:24:42;;;;;;;19.35;1.52;;;11.80;99.90;;;;;;5015402;28;20053;-73
2022/11/03 01:27:11;;;;;;;;;;;11.90;99.90;;;;;;5015282;28;20057;-72
2022/11/03 01:29:40;;;;;;;9.23;1.35;;;11.80;99.90;;;;;;5014158;28;19921;-72
2022/11/03 01:32:07;;;;;;;6.97;1.20;;;11.80;99.90;;;;;;5014583;28;20122;-72
2022/11/03 01:34:36;;;;;;;5.38;1.10;;;11.80;99.90;;;;;;4999570;28;20061;-73
2022/11/03 01:37:04;;;;;;;6.72;0.82;;;11.80;99.90;;;;;;5017524;28;20046;-74
2022/11/03 01:39:31;;;;;;;4.80;1.10;;;11.80;99.90;;;;;;5019017;28;20038;-72
2022/11/03 01:41:59;;;;;;;7.38;1.00;;;11.80;99.90;;;;;;5017941;28;20373;-74
2022/11/03 01:44:29;;;;;;;4.18;0.90;;;11.80;99.90;;;;;;5018521;28;20046;-74
2022/11/03 01:47:13;;;;;;;9.57;1.15;;;11.80;99.90;;;;;;5001352;28;20054;-73
2022/11/03 01:49:46;;;;;;;7.53;0.85;;;11.80;99.90;;;;;;5017845;28;20050;-73
2022/11/03 01:52:32;;;;;;;7.97;1.00;;;11.90;99.90;;;;;;5001315;28;20045;-72
2022/11/03 01:55:05;;;;;;;6.07;1.00;;;11.80;99.90;;;;;;5018431;28;20042;-72
2022/11/03 01:57:47;;;;;;;5.30;0.98;;;11.80;99.90;;;;;;5018225;28;20046;-72
2022/11/03 02:00:15;;;;;;;8.20;1.05;;;11.90;99.90;;;;;;5018857;28;20369;-73
2022/11/03 02:02:44;;;;;;;7.65;1.05;;;11.90;99.90;;;;;;5017402;28;20054;-73
2022/11/03 02:05:15;;;;;;;6.53;1.00;;;11.90;99.90;;;;;;5018350;28;20053;-73
2022/11/03 02:07:49;;;;;;;4.47;0.70;;;11.90;99.90;;;;;;5018172;28;20064;-72
2022/11/03 02:10:17;;;;;;;3.97;0.85;;;11.90;99.90;;;;;;4999933;28;20054;-73
2022/11/03 02:12:46;;;;;;;7.20;0.85;;;11.90;99.90;;;;;;5017870;28;20050;-73
2022/11/03 02:15:15;;;;;;;6.45;0.75;;;11.90;99.90;;;;;;5016959;28;20164;-73
2022/11/03 02:17:44;;;;;;;9.63;1.00;;;11.90;99.90;;;;;;5017998;28;20365;-73
2022/11/03 02:20:27;;;;;;;8.30;0.90;;;11.90;99.90;;;;;;5017933;28;20053;-74
2022/11/03 02:23:19;;;;;;;10.45;0.90;;;11.90;99.90;;;;;;5016887;28;20076;-74
2022/11/03 02:25:48;;;;;;;5.38;0.90;;;11.90;99.90;;;;;;5018131;28;20053;-73
2022/11/03 02:28:21;;;;;;;5.25;1.10;;;11.90;99.90;;;;;;5017697;28;20056;-73
2022/11/03 02:30:52;;;;;;;6.88;0.90;;;11.80;99.90;;;;;;5017784;28;20046;-73
2022/11/03 02:33:27;;;;;;;10.25;1.10;;;11.80;99.90;;;;;;5017951;28;20465;-72
2022/11/03 02:36:00;;;;;;;6.85;1.20;;;11.70;99.90;;;;;;5017042;28;20057;-74
2022/11/03 02:38:30;;;;;;;12.52;1.10;;;11.70;99.90;;;;;;5018011;28;20046;-72
2022/11/03 02:41:01;;;;;;;14.07;1.55;;;11.90;99.90;;;;;;5018094;28;20038;-73
2022/11/03 02:43:30;;;;;;;13.80;1.50;;;11.60;99.90;;;;;;5016278;28;20057;-72
2022/11/03 02:45:58;;;;;;;10.63;1.92;;;11.70;99.90;;;;;;5016813;28;20050;-74
2022/11/03 02:48:26;;;;;;;21.92;2.10;;;11.70;99.90;;;;;;4999188;28;20042;-73
2022/11/03 02:50:53;;;;;;;16.48;2.30;;;11.70;99.90;;;;;;5017349;28;20057;-72
2022/11/03 02:53:21;;;;;;;16.70;2.00;;;11.80;99.90;;;;;;5000336;28;20057;-73
2022/11/03 02:56:04;;;;;;;16.60;2.17;;;11.80;99.90;;;;;;5016060;28;20053;-72
2022/11/03 02:58:44;;;;;;;17.80;2.05;;;11.90;99.90;;;;;;5000611;28;20061;-72
2022/11/03 03:01:20;;;;;;;24.33;2.63;;;11.90;99.90;;;;;;5017615;28;20687;-73
2022/11/03 03:03:52;;;;;;;23.15;2.90;;;11.90;99.90;;;;;;5016165;28;20049;-72
2022/11/03 03:06:26;;;;;;;21.48;3.30;;;12.00;99.90;;;;;;5016772;28;20045;-73
2022/11/03 03:08:58;;;;;;;21.80;3.10;;;11.90;99.90;;;;;;4998932;28;20065;-73
2022/11/03 03:11:37;;;;;;;25.92;3.15;;;12.00;99.90;;;;;;5017063;28;20358;-73
2022/11/03 03:14:16;;;;;;;27.15;3.10;;;12.00;99.90;;;;;;5017280;28;20156;-73
2022/11/03 03:16:58;;;;;;;23.80;3.17;;;12.10;99.90;;;;;;4998659;28;20046;-72
2022/11/03 03:19:36;;;;;;;29.63;3.10;;;12.10;99.90;;;;;;5017285;28;20046;-74
2022/11/03 03:22:15;;;;;;;29.60;3.03;;;12.10;99.90;;;;;;5015586;28;20061;-72
2022/11/03 03:24:51;;;;;;;31.10;3.92;;;12.10;99.90;;;;;;4999792;28;20046;-72
2022/11/03 03:27:23;;;;;;;34.53;4.38;;;12.10;99.90;;;;;;5016578;28;20050;-73
2022/11/03 03:30:06;;;;;;;33.40;4.78;;;12.10;99.90;;;;;;4998832;28;20354;-72
2022/11/03 03:32:45;;;;;;;32.83;4.13;;;12.10;99.90;;;;;;5016457;28;20057;-74
2022/11/03 03:35:17;;;;;;;32.00;4.82;;;12.10;99.90;;;;;;4998318;28;20377;-74
2022/11/03 03:37:49;;;;;;;32.20;4.35;;;12.10;99.90;;;;;;5016528;28;20573;-73
2022/11/03 03:40:23;;;;;;;30.80;4.25;;;12.10;99.90;;;;;;5016730;28;20046;-74
2022/11/03 03:42:51;;;;;;;37.40;4.63;;;12.10;99.90;;;;;;5015369;28;20042;-73
2022/11/03 03:45:19;;;;;;;29.10;3.80;;;12.20;99.90;;;;;;5016507;28;20391;-73
2022/11/03 03:47:47;;;;;;;25.23;4.25;;;12.30;99.90;;;;;;5016379;28;20046;-73
2022/11/03 03:50:15;;;;;;;27.00;3.72;;;12.20;99.90;;;;;;5015050;28;20054;-72
2022/11/03 03:52:43;;;;;;;28.60;3.90;;;12.30;99.90;;;;;;5016272;28;20049;-73
2022/11/03 03:55:21;;;;;;;23.85;3.47;;;12.20;99.90;;;;;;5015468;28;20049;-72
2022/11/03 03:57:54;;;;;;;32.28;3.63;;;12.20;99.90;;;;;;5015453;28;20050;-73
2022/11/03 04:00:25;;;;;;;26.17;3.30;;;12.30;99.90;;;;;;5016237;28;20053;-72
2022/11/03 04:02:56;;;;;;;22.63;3.40;;;12.30;99.90;;;;;;5014982;28;20049;-73
2022/11/03 04:05:25;;;;;;;16.23;3.10;;;12.30;99.90;;;;;;5016302;28;20056;-72
2022/11/03 04:07:52;;;;;;;26.17;2.80;;;12.20;99.90;;;;;;5015709;28;20057;-72
2022/11/03 04:10:21;;;;;;;22.27;3.42;;;12.20;99.90;;;;;;5014879;28;20049;-72
2022/11/03 04:23:53;;;;;;;20.83;2.50;;;12.40;99.90;;;;;;5014540;28;20291;-72
2022/11/03 04:26:21;;;;;;;25.13;2.95;;;12.40;99.90;;;;;;5015638;28;20045;-73
2022/11/03 04:28:51;;;;;;;15.27;2.50;;;12.40;99.90;;;;;;4981251;28;20060;-72
2022/11/03 04:31:20;;;;;;;16.88;2.42;;;12.40;99.90;;;;;;5015660;28;20058;-73
2022/11/03 04:33:48;;;;;;;23.02;2.65;;;12.40;99.90;;;;;;4998127;28;20033;-72
2022/11/03 04:36:21;;;;;;;23.15;3.00;;;12.40;99.90;;;;;;5014740;28;20041;-74
2022/11/03 04:38:50;;;;;;;23.77;2.72;;;12.50;99.90;;;;;;5015513;28;20046;-71
2022/11/03 04:41:28;;;;;;;19.70;2.90;;;12.70;99.90;;;;;;5015413;28;20052;-74
2022/11/03 04:43:56;;;;;;;23.25;2.40;;;12.50;99.90;;;;;;5014189;28;20046;-73
2022/11/03 04:46:28;;;;;;;23.67;2.60;;;12.60;99.90;;;;;;5015232;28;20054;-72
2022/11/03 04:49:00;;;;;;;20.98;2.88;;;12.50;99.90;;;;;;5014210;28;20060;-73
2022/11/03 04:51:32;;;;;;;24.15;2.72;;;12.60;99.90;;;;;;5015150;28;20386;-73
2022/11/03 04:54:14;;;;;;;23.10;2.80;;;12.60;99.90;;;;;;5015292;28;20535;-73
2022/11/03 04:56:41;;;;;;;19.08;2.28;;;12.60;99.90;;;;;;5013922;28;20053;-74
2022/11/03 04:59:14;;;;;;;19.60;2.53;;;12.60;99.90;;;;;;5015081;28;20045;-73
2022/11/03 05:01:43;;;;;;;18.58;2.35;;;12.50;99.90;;;;;;5015332;28;20046;-72
2022/11/03 05:04:17;;;;;;;19.00;2.40;;;12.60;99.90;;;;;;5014944;28;20050;-72
2022/11/03 05:06:52;;;;;;;21.90;2.22;;;12.60;99.90;;;;;;5014751;28;20053;-74
2022/11/03 05:09:26;;;;;;;21.15;2.30;;;12.60;99.90;;;;;;5013495;28;20054;-73
2022/11/03 05:11:53;;;;;;;18.15;2.25;;;12.50;99.90;;;;;;5015567;28;20187;-73
2022/11/03 05:14:22;;;;;;;16.43;2.23;;;12.60;99.90;;;;;;5014780;28;20045;-73
2022/11/03 05:16:52;;;;;;;17.27;2.80;;;12.60;99.90;;;;;;5013965;28;20287;-73
2022/11/03 05:19:27;;;;;;;20.00;2.50;;;12.60;99.90;;;;;;5014969;28;20042;-73
2022/11/03 05:21:57;;;;;;;18.77;2.22;;;12.60;99.90;;;;;;4996859;28;20057;-74
2022/11/03 05:24:24;;;;;;;15.38;2.22;;;12.60;99.90;;;;;;5014992;28;20054;-74
2022/11/03 05:26:54;;;;;;;22.42;2.47;;;12.60;99.90;;;;;;5015463;28;20457;-74
2022/11/03 05:29:28;;;;;;;14.38;1.98;;;12.60;99.90;;;;;;5013679;28;20499;-71
2022/11/03 05:31:56;;;;;;;15.38;2.38;;;12.60;99.90;;;;;;4997732;28;20053;-72
2022/11/03 05:34:31;;;;;;;19.27;2.90;;;12.60;99.90;;;;;;5014899;28;20042;-72
2022/11/03 05:37:19;;;;;;;19.48;2.90;;;12.60;99.90;;;;;;4996589;28;20042;-72
2022/11/03 05:40:12;;;;;;;21.27;2.90;;;12.60;99.90;;;;;;5014698;28;20045;-73
2022/11/03 05:42:44;;;;;;;16.60;3.03;;;12.70;99.90;;;;;;5013517;28;20046;-74
2022/11/03 05:45:23;;;;;;;20.08;2.85;;;12.70;99.90;;;;;;4997925;28;20361;-74
2022/11/03 05:47:54;;;;;;;24.80;3.03;;;12.70;99.90;;;;;;5015076;28;20126;-72
2022/11/03 05:50:26;;;;;;;28.38;3.38;;;12.70;99.90;;;;;;5013601;28;20054;-72
2022/11/03 05:53:18;;;;;;;26.30;3.00;;;12.70;99.90;;;;;;5014621;28;20049;-73
2022/11/03 05:55:45;;;;;;;25.90;3.28;;;12.80;99.90;;;;;;5013822;28;20038;-72
2022/11/03 05:58:33;;;;;;;19.27;3.00;;;12.80;99.90;;;;;;5014276;28;20065;-72
2022/11/03 06:01:17;;;;;;;30.55;3.58;;;12.80;99.90;;;;;;5014464;28;20049;-73
2022/11/03 06:03:46;;;;;;;22.08;3.28;;;12.80;99.90;;;;;;5019547;28;20452;-72
2022/11/03 06:06:52;;;;;;;29.30;3.90;;;12.80;99.90;;;;;;5035780;28;20079;-73
2022/11/03 06:09:23;;;;;;;38.17;4.15;;;12.80;99.90;;;;;;4973096;28;20061;-72
2022/11/03 06:11:54;;;;;;;25.75;4.15;;;12.90;99.90;;;;;;5042943;28;20053;-73
2022/11/03 06:14:24;;;;;;;22.05;4.10;;;12.90;99.90;;;;;;5054388;28;20045;-73
2022/11/03 06:16:56;;;;;;;33.42;3.97;;;12.90;99.90;;;;;;5052875;28;20041;-73
2022/11/03 06:19:29;;;;;;;28.17;4.13;;;12.90;99.90;;;;;;5054192;28;20045;-72
2022/11/03 06:22:01;;;;;;;32.72;4.93;;;12.90;99.90;;;;;;5055041;28;20041;-72
2022/11/03 06:24:31;;;;;;;26.60;3.63;;;13.00;99.90;;;;;;5057456;28;20044;-72
2022/11/03 06:26:58;;;;;;;29.08;4.00;;;13.00;99.90;;;;;;5057505;28;20574;-72
2022/11/03 06:29:30;;;;;;;30.10;4.15;;;13.00;99.90;;;;;;5056333;28;20045;-72
2022/11/03 06:31:58;;;;;;;23.13;3.45;;;13.00;99.90;;;;;;5057603;28;20060;-73
2022/11/03 06:34:46;;;;;;;14.63;1.90;;;13.00;99.90;;;;;;5057217;28;20045;-72
2022/11/03 06:37:33;;;;;;;15.18;1.80;;;12.90;99.90;;;;;;5056165;28;20464;-72
2022/11/03 06:40:26;;;;;;;9.52;1.77;;;12.90;99.90;;;;;;5056665;28;20037;-73
2022/11/03 06:42:57;;;;;;;4.47;0.80;;;12.80;99.90;;;;;;5048130;28;20057;-72
2022/11/03 06:45:25;;;;;;;6.68;0.75;;;12.70;99.90;;;;;;5057064;28;20052;-73
2022/11/03 06:47:53;;;;;;;3.30;0.50;;;12.80;99.90;;;;;;5057081;28;20045;-72
2022/11/03 06:50:31;;;;;;;7.43;0.70;;;12.60;99.90;;;;;;5056012;28;20041;-73
2022/11/03 06:53:02;;;;;;;5.75;0.80;;;12.40;99.90;;;;;;5056495;28;20383;-72
2022/11/03 06:55:33;;;;;;;8.95;0.70;;;12.30;99.90;;;;;;5055680;28;20049;-72
2022/11/03 06:58:21;;;;;;;10.68;0.98;;;12.30;99.90;;;;;;5057106;28;20048;-72
2022/11/03 07:00:49;;;;;;;10.20;1.52;;;12.20;99.90;;;;;;5057131;28;20048;-72
2022/11/03 07:03:34;;;;;;;13.05;1.40;;;12.00;99.90;;;;;;5054833;28;20036;-72
2022/11/03 07:06:13;;;;;;;14.43;1.98;;;11.80;99.90;;;;;;5056738;28;20357;-72
2022/11/03 07:08:45;;;;;;;13.93;1.98;;;11.70;99.90;;;;;;5035890;28;20392;-72
2022/11/03 07:11:19;;;;;;;21.08;2.20;;;11.60;99.90;;;;;;5036719;28;20049;-72
2022/11/03 07:13:52;;;;;;;14.18;2.03;;;11.40;99.90;;;;;;5019462;28;20065;-73
2022/11/03 07:16:40;;;;;;;13.70;1.95;;;11.40;99.90;;;;;;5035579;28;20131;-72
2022/11/03 07:19:19;;;;;;;13.75;2.15;;;11.30;99.90;;;;;;5036907;28;20487;-72
2022/11/03 07:21:54;;;;;;;21.27;2.58;;;11.20;99.90;;;;;;5035708;28;20046;-72
2022/11/03 07:24:25;;;;;;;20.42;2.47;;;11.20;99.90;;;;;;5036706;28;20045;-72
2022/11/03 07:27:00;;;;;;;27.23;2.72;;;11.10;99.90;;;;;;5036469;28;20046;-73
2022/11/03 07:29:30;;;;;;;21.17;2.63;;;11.10;99.90;;;;;;5018685;28;20454;-72
2022/11/03 07:31:59;;;;;;;22.45;2.53;;;11.10;99.90;;;;;;5036173;28;20049;-72
2022/11/03 07:34:32;;;;;;;23.05;2.88;;;11.10;99.90;;;;;;5036520;28;20042;-73
2022/11/03 07:36:59;;;;;;;27.80;2.83;;;11.10;99.90;;;;;;5035236;28;20052;-73
2022/11/03 07:39:33;;;;;;;19.25;2.50;;;11.10;99.90;;;;;;5036193;28;20053;-72
2022/11/03 07:42:18;;;;;;;18.00;2.10;;;11.10;99.90;;;;;;5035407;28;20045;-73
2022/11/03 07:44:46;;;;;;;20.73;2.60;;;11.10;99.90;;;;;;5036201;28;20056;-72
2022/11/03 07:47:19;;;;;;;20.48;2.53;;;11.00;99.90;;;;;;5036324;28;20052;-73
2022/11/03 07:49:47;;;;;;;20.92;2.40;;;11.00;99.90;;;;;;5034978;28;20046;-72
2022/11/03 07:52:17;;;;;;;;;;;11.00;99.90;;;;;;5036456;28;20045;-72
2022/11/03 07:54:45;;;;;;;12.68;2.35;;;11.00;99.90;;;;;;5036242;28;19921;-73
2022/11/03 07:57:26;;;;;;;14.70;2.42;;;11.30;99.90;;;;;;5034802;28;20467;-73
2022/11/03 08:00:00;;;;;;;17.08;2.30;;;11.00;99.90;;;;;;5035959;28;20049;-72
2022/11/03 08:02:59;;;;;;;10.30;1.80;;;11.00;99.90;;;;;;5019155;28;20045;-74
2022/11/03 08:05:27;;;;;;;13.77;1.83;;;11.00;99.90;;;;;;5035620;28;20046;-72
2022/11/03 08:07:55;;;;;;;14.68;1.90;;;10.90;99.90;;;;;;5035180;28;20049;-71
2022/11/03 08:10:23;;;;;;;15.90;2.20;;;11.10;99.90;;;;;;5017096;28;20045;-71
2022/11/03 08:12:50;;;;;;;12.10;1.83;;;11.00;99.90;;;;;;5035296;28;20291;-72
2022/11/03 08:15:17;;;;;;;12.80;1.98;;;11.00;99.90;;;;;;5034113;28;20045;-72
2022/11/03 08:17:45;;;;;;;10.88;1.85;;;11.00;99.90;;;;;;5035004;28;20045;-72
2022/11/03 08:20:13;;;;;;;15.83;2.03;;;11.00;99.90;;;;;;5017949;28;20046;-72
2022/11/03 08:22:40;;;;;;;12.15;2.22;;;11.00;99.90;;;;;;5034057;28;20587;-71
2022/11/03 08:25:16;;;;;;;11.40;2.10;;;11.00;99.90;;;;;;5035040;28;20049;-71
2022/11/03 08:27:43;;;;;;;14.67;1.87;;;11.00;99.90;;;;;;5035148;28;20456;-71
2022/11/03 08:30:11;;;;;;;12.57;1.73;;;11.00;99.90;;;;;;5033941;28;20279;-72
2022/11/03 08:32:39;;;;;;;7.53;1.63;;;11.00;99.90;;;;;;5034703;28;20060;-72
2022/11/03 08:35:06;;;;;;;7.57;1.70;;;10.90;99.90;;;;;;5033868;28;20053;-72
2022/11/03 08:37:34;;;;;;;10.13;1.83;;;11.00;99.90;;;;;;5034858;28;20045;-72
2022/11/03 08:40:02;;;;;;;8.80;1.50;;;11.00;99.90;;;;;;5035097;28;20053;-71
2022/11/03 08:42:30;;;;;;;10.38;1.60;;;11.00;99.90;;;;;;5033724;28;20041;-72
2022/11/03 08:44:58;;;;;;;11.52;1.80;;;11.00;99.90;;;;;;5034278;28;20049;-72
2022/11/03 08:47:26;;;;;;;11.25;1.67;;;11.10;99.90;;;;;;5035055;28;20060;-73
2022/11/03 08:49:53;;;;;;;9.18;1.65;;;11.10;99.90;;;;;;5034265;28;20049;-72
2022/11/03 08:52:21;;;;;;;9.90;1.98;;;11.00;99.90;;;;;;5034947;28;20384;-72
2022/11/03 08:54:49;;;;;;;12.20;2.08;;;11.10;99.90;;;;;;5035434;28;20053;-72
2022/11/03 08:57:16;;;;;;;7.22;1.40;;;11.30;99.90;;;;;;5034251;28;20052;-72
2022/11/03 08:59:44;;;;;;;8.00;1.83;;;11.10;99.90;;;;;;5035246;28;20353;-71
2022/11/03 09:02:11;;;;;;;6.50;1.40;;;11.00;99.90;;;;;;5034018;28;20286;-72
2022/11/03 09:04:39;;;;;;;10.38;1.65;;;11.00;99.90;;;;;;5017590;28;20049;-72
2022/11/03 09:07:06;;;;;;;13.43;2.10;;;11.00;99.90;;;;;;5027641;28;20057;-71
2022/11/03 09:09:33;;;;;;;17.30;2.23;;;11.00;99.90;;;;;;5052938;28;20282;-72
2022/11/03 09:12:21;;;;;;;8.25;1.80;;;11.10;99.90;;;;;;5053660;28;20289;-71
2022/11/03 09:14:48;;;;;;;9.20;1.80;;;11.00;99.90;;;;;;5050398;28;20056;-73
2022/11/03 09:17:16;;;;;;;10.55;1.80;;;11.60;99.90;;;;;;5043952;28;20472;-72
2022/11/03 09:19:43;;;;;;;18.10;2.40;;;11.10;99.90;;;;;;5034569;28;20041;-72
2022/11/03 09:22:11;;;;;;;14.52;2.45;;;11.10;99.90;;;;;;5048175;28;20049;-72
2022/11/03 09:24:39;;;;;;;13.57;2.42;;;11.10;99.90;;;;;;5054533;28;20048;-72
2022/11/03 09:27:07;;;;;;;;;;;11.10;99.90;;;;;;5054775;28;20056;-71
2022/11/03 09:29:34;;;;;;;8.43;2.15;;;11.20;99.90;;;;;;5048665;28;19932;-73
2022/11/03 09:32:22;;;;;;;8.60;1.50;;;11.20;99.90;;;;;;5034621;28;20038;-73
2022/11/03 09:34:50;;;;;;;21.42;2.08;;;11.20;99.90;;;;;;5042569;28;20053;-74
2022/11/03 09:37:17;;;;;;;10.63;2.00;;;11.20;99.90;;;;;;5031223;28;20380;-76
2022/11/03 09:39:46;;;;;;;14.35;2.00;;;11.30;99.90;;;;;;5033575;28;20049;-75
2022/11/03 09:42:15;;;;;;;7.63;1.50;;;11.30;99.90;;;;;;5033418;28;20042;-75
2022/11/03 09:44:45;;;;;;;8.35;1.90;;;12.20;99.90;;;;;;5035023;28;20050;-73
2022/11/03 09:47:24;;;;;;;9.88;1.45;;;11.30;99.90;;;;;;5033551;28;20071;-73
2022/11/03 09:49:51;;;;;;;6.07;1.17;;;11.30;99.90;;;;;;5033438;28;20049;-74
2022/11/03 09:52:23;;;;;;;9.95;1.65;;;11.20;99.90;;;;;;5017076;28;20050;-74
2022/11/03 09:54:54;;;;;;;7.45;1.33;;;11.20;99.90;;;;;;5034236;28;20068;-74
2022/11/03 09:57:22;;;;;;;7.90;1.33;;;11.30;99.90;;;;;;5035948;28;20049;-73
2022/11/03 09:59:50;;;;;;;14.98;1.85;;;11.20;99.90;;;;;;5037278;28;20086;-73
2022/11/03 10:02:27;;;;;;;13.40;1.60;;;11.20;99.90;;;;;;5035294;28;20045;-74
2022/11/03 10:04:57;;;;;;;10.70;1.70;;;11.20;99.90;;;;;;5037780;28;20052;-73
2022/11/03 10:07:27;;;;;;;19.45;2.47;;;11.20;99.90;;;;;;5036647;28;20061;-73
2022/11/03 10:09:57;;;;;;;11.25;1.95;;;11.20;99.90;;;;;;5035810;28;20045;-75
2022/11/03 10:12:26;;;;;;;9.98;2.58;;;11.10;99.90;;;;;;5037665;28;20056;-75
2022/11/03 10:14:53;;;;;;;11.38;3.22;;;11.20;99.90;;;;;;5037664;28;20054;-73
2022/11/03 10:17:26;;;;;;;9.82;2.75;;;11.10;99.90;;;;;;5036162;28;20052;-74
2022/11/03 10:19:56;;;;;;;15.73;3.40;;;11.10;99.90;;;;;;5036506;28;20041;-73
2022/11/03 10:22:26;;;;;;;17.63;3.58;;;11.00;99.90;;;;;;5035623;28;20057;-74
2022/11/03 10:25:34;;;;;;;14.55;3.45;;;11.00;99.90;;;;;;5037805;28;20053;-73
2022/11/03 10:28:16;;;;;;;11.73;2.30;;;11.00;99.90;;;;;;5034221;28;20083;-73
2022/11/03 10:31:19;;;;;;;11.43;2.42;;;11.00;99.90;;;;;;5018680;28;20057;-75
2022/11/03 10:33:52;;;;;;;13.02;2.03;;;11.00;99.90;;;;;;5013156;28;20161;-74
2022/11/03 10:36:37;;;;;;;7.95;2.20;;;11.00;99.90;;;;;;5036070;28;20041;-74
2022/11/03 10:39:24;;;;;;;10.82;2.08;;;11.00;99.90;;;;;;5037115;28;20053;-74
2022/11/03 10:41:57;;;;;;;13.02;2.00;;;11.00;99.90;;;;;;5036057;28;20037;-74
2022/11/03 10:44:27;;;;;;;9.10;2.10;;;11.10;99.90;;;;;;5036817;28;20045;-76
2022/11/03 10:46:58;;;;;;;12.85;2.40;;;11.10;99.90;;;;;;5037000;28;20049;-74
2022/11/03 10:49:35;;;;;;;7.70;1.60;;;11.10;99.90;;;;;;5036585;28;20053;-75
2022/11/03 10:52:23;;;;;;;8.80;1.50;;;11.10;99.90;;;;;;5036867;28;20069;-75
2022/11/03 10:54:53;;;;;;;6.78;1.30;;;11.00;99.90;;;;;;5037225;28;20056;-75
2022/11/03 10:57:22;;;;;;;13.55;1.83;;;11.10;99.90;;;;;;5035892;28;20049;-74
2022/11/03 10:59:52;;;;;;;8.10;2.35;;;11.10;99.90;;;;;;5036954;28;20045;-73
2022/11/03 11:02:23;;;;;;;10.57;3.15;;;11.20;99.90;;;;;;5035342;28;20049;-76
2022/11/03 11:04:58;;;;;;;10.13;2.50;;;11.20;99.90;;;;;;5036408;28;20048;-74
2022/11/03 11:07:38;;;;;;;9.55;2.28;;;11.20;99.90;;;;;;5035559;28;20053;-74
2022/11/03 11:10:06;;;;;;;14.32;4.57;;;11.50;99.90;;;;;;5035308;28;20052;-72
2022/11/03 11:12:34;;;;;;;14.20;4.80;;;11.20;99.90;;;;;;5036867;28;20487;-74
2022/11/03 11:15:06;;;;;;;18.65;5.85;;;11.20;99.90;;;;;;5037133;28;20057;-75
2022/11/03 11:17:36;;;;;;;27.35;8.82;;;11.20;99.90;;;;;;5036587;28;20045;-75
2022/11/03 11:20:20;;;;;;;22.48;8.00;;;11.30;99.90;;;;;;5036577;28;20046;-74
2022/11/03 11:22:50;;;;;;;20.48;6.15;;;11.30;99.90;;;;;;5035810;28;20053;-73
2022/11/03 11:25:17;;;;;;;19.67;6.65;;;11.30;99.90;;;;;;5036364;28;20158;-74
2022/11/03 11:27:46;;;;;;;18.15;5.53;;;11.40;99.90;;;;;;5035623;28;20057;-75
2022/11/03 11:30:19;;;;;;;13.63;3.28;;;11.40;99.90;;;;;;5034517;28;20041;-75
2022/11/03 11:33:11;;;;;;;8.23;3.25;;;11.40;99.90;;;;;;5036434;28;20052;-75
2022/11/03 11:35:39;;;;;;;9.00;2.80;;;11.50;99.90;;;;;;5035630;28;20460;-73
2022/11/03 11:38:43;;;;;;;9.40;2.90;;;11.50;99.90;;;;;;5035174;28;20491;-74
2022/11/03 11:41:10;;;;;;;7.57;2.30;;;11.60;99.90;;;;;;5019203;28;20053;-75
2022/11/03 11:43:38;;;;;;;13.33;2.77;;;11.60;99.90;;;;;;5035031;28;20384;-75
2022/11/03 11:46:30;;;;;;;10.23;2.30;;;11.70;99.90;;;;;;5036550;28;20290;-73
2022/11/03 11:49:01;;;;;;;9.00;1.73;;;11.80;99.90;;;;;;5035068;28;20291;-73
2022/11/03 11:51:33;;;;;;;7.68;1.70;;;11.90;99.90;;;;;;5035667;28;20057;-74
2022/11/03 11:54:05;;;;;;;11.30;2.10;;;11.90;99.90;;;;;;5036146;28;20412;-74
2022/11/03 11:56:47;;;;;;;7.18;1.70;;;11.90;99.90;;;;;;5033192;28;20499;-74
2022/11/03 11:59:19;;;;;;;7.88;1.88;;;12.00;99.90;;;;;;5034856;28;20044;-74
2022/11/03 12:01:54;;;;;;;6.55;1.80;;;12.10;99.90;;;;;;5034408;28;20041;-73
2022/11/03 12:04:25;;;;;;;12.63;2.15;;;12.20;99.90;;;;;;5035751;28;20041;-75
2022/11/03 12:06:54;;;;;;;8.40;2.05;;;12.20;99.90;;;;;;5030590;28;20457;-74
2022/11/03 12:09:29;;;;;;;7.75;2.63;;;12.30;99.90;;;;;;5014514;28;20054;-73
2022/11/03 12:11:59;;;;;;;11.07;2.97;;;12.20;99.90;;;;;;4998835;28;20057;-74
2022/11/03 12:14:38;;;;;;;10.10;3.13;;;12.30;99.90;;;;;;4983435;28;20045;-75
2022/11/03 12:17:16;;;;;;;11.38;2.67;;;12.30;99.90;;;;;;5014331;28;20042;-74
2022/11/03 12:19:53;;;;;;;6.85;2.50;;;12.50;99.90;;;;;;5014782;28;20368;-74
2022/11/03 12:22:23;;;;;;;9.55;2.53;;;12.30;99.90;;;;;;5014508;28;20042;-71
2022/11/03 12:24:52;;;;;;;7.65;2.72;;;12.20;99.90;;;;;;4998075;28;20046;-74
2022/11/03 12:27:40;;;;;;;10.55;2.97;;;12.10;99.90;;;;;;5015321;28;20054;-73
2022/11/03 12:30:13;;;;;;;12.30;3.13;;;12.20;99.90;;;;;;5014433;28;20384;-73
2022/11/03 12:32:40;;;;;;;6.45;3.22;;;12.20;99.90;;;;;;4998269;28;20046;-74
2022/11/03 12:35:09;;;;;;;11.88;3.45;;;12.20;99.90;;;;;;4996987;28;20054;-73
2022/11/03 12:37:37;;;;;;;8.13;2.35;;;12.30;99.90;;;;;;5015102;28;20361;-73
2022/11/03 12:40:05;;;;;;;6.88;2.45;;;12.50;99.90;;;;;;5014875;28;20045;-72
2022/11/03 12:42:33;;;;;;;8.63;2.70;;;12.30;99.90;;;;;;5014013;28;20042;-75
2022/11/03 12:45:01;;;;;;;;;;;12.30;99.90;;;;;;5015554;28;20046;-73
2022/11/03 12:47:29;;;;;;;13.02;2.30;;;12.30;99.90;;;;;;5015125;28;19928;-74
2022/11/03 12:49:57;;;;;;;6.82;2.10;;;12.30;99.90;;;;;;5013890;28;20346;-73
2022/11/03 12:52:24;;;;;;;5.25;2.47;;;12.30;99.90;;;;;;4997858;28;20495;-72
2022/11/03 12:54:52;;;;;;;10.35;2.60;;;12.30;99.90;;;;;;5014862;28;20060;-72
2022/11/03 12:57:19;;;;;;;5.72;2.28;;;12.30;99.90;;;;;;5013725;28;20050;-73
2022/11/03 12:59:46;;;;;;;7.80;2.00;;;12.30;99.90;;;;;;5015043;28;20053;-72
2022/11/03 13:02:14;;;;;;;10.02;2.70;;;12.40;99.90;;;;;;4996673;28;20046;-73
2022/11/03 13:04:42;;;;;;;8.00;2.40;;;12.40;99.90;;;;;;4997805;28;20050;-73
2022/11/03 13:07:09;;;;;;;7.63;1.88;;;12.60;99.90;;;;;;5008437;28;20483;-73
2022/11/03 13:09:37;;;;;;;6.65;2.70;;;12.50;99.90;;;;;;5032328;28;20453;-73
2022/11/03 13:14:51;;;;;;;4.18;1.83;;;12.60;99.90;;;;;;5034403;28;20491;-74
2022/11/03 13:17:18;;;;;;;6.97;2.00;;;12.50;99.90;;;;;;5033244;28;20045;-73
2022/11/03 13:19:45;;;;;;;7.47;2.37;;;12.50;99.90;;;;;;5032777;28;20042;-73
2022/11/03 13:22:13;;;;;;;9.52;2.40;;;12.50;99.90;;;;;;5033185;28;20041;-73
2022/11/03 13:24:40;;;;;;;6.28;1.95;;;12.50;99.90;;;;;;5034668;28;20042;-73